Time;durP1;ratioP1;P1;durP2;ratioP2;P2;SDS_P1;SDS_P2;PMS_P1;PMS_P2;Temp;Humidity;BMP_temperature;BMP_pressure;BME280_temperature;BME280_humidity;BME280_pressure;Samples;Min_cycle;Max_cycle;Signal;HPM_P1;HPM_P2
2022/11/11 00:01:55;;;;;;;29.40;11.67;;;7.90;99.90;;;8.48;100.00;99557.78;5021667;28;20972;-85
2022/11/11 00:04:27;;;;;;;26.97;12.60;;;7.90;99.90;;;8.49;100.00;99556.84;5022462;28;20593;-85
2022/11/11 00:06:56;;;;;;;24.97;12.13;;;7.90;99.90;;;8.46;100.00;99567.56;5020983;28;20502;-85
2022/11/11 00:09:28;;;;;;;22.73;11.43;;;7.80;99.90;;;8.46;100.00;99574.53;5021263;28;21040;-85
2022/11/11 00:11:56;;;;;;;21.13;11.10;;;7.80;99.90;;;8.44;100.00;99581.66;5021153;28;20527;-84
2022/11/11 00:14:25;;;;;;;25.90;11.80;;;7.80;99.90;;;8.48;100.00;99583.03;5021344;28;20455;-84
2022/11/11 00:25:28;;;;;;;24.37;11.53;;;7.90;99.90;;;8.43;100.00;99578.25;5010381;28;20489;-85
2022/11/11 00:27:56;;;;;;;30.47;10.83;;;7.70;99.90;;;8.40;100.00;99590.72;5020040;28;20485;-85
2022/11/11 00:30:26;;;;;;;23.67;11.50;;;7.60;99.90;;;8.39;100.00;99584.69;5019821;28;20829;-84
2022/11/11 00:32:55;;;;;;;24.90;11.50;;;7.70;99.90;;;8.40;100.00;99581.09;5019423;28;20468;-85
2022/11/11 00:38:44;;;;;;;18.93;9.53;;;7.80;99.90;;;8.31;100.00;99597.56;5019427;28;20930;-85
2022/11/11 00:41:04;;;;;;;20.77;10.20;;;7.60;99.90;;;8.26;100.00;99597.09;5020137;28;20462;-84
2022/11/11 00:43:34;;;;;;;24.70;9.63;;;7.60;99.90;;;8.26;100.00;99598.91;5018145;28;20466;-85
2022/11/11 00:51:57;;;;;;;17.93;9.30;;;7.50;99.90;;;8.27;100.00;99600.53;4962530;28;20995;-85
2022/11/11 00:54:26;;;;;;;17.57;8.53;;;7.50;99.90;;;8.24;100.00;99593.81;4962212;28;20475;-85
2022/11/11 00:56:56;;;;;;;17.53;9.43;;;7.60;99.90;;;8.25;100.00;99587.66;4991138;28;20535;-85
2022/11/11 00:59:27;;;;;;;22.03;9.60;;;7.60;99.90;;;8.21;100.00;99595.84;5017193;28;20515;-85
2022/11/11 01:01:57;;;;;;;20.93;8.60;;;7.50;99.90;;;8.18;100.00;99594.34;5020041;28;20888;-84
2022/11/11 01:04:31;;;;;;;15.37;8.47;;;7.60;99.90;;;8.15;100.00;99581.59;5018687;28;20497;-85
2022/11/11 01:07:01;;;;;;;15.83;8.70;;;7.50;99.90;;;8.11;100.00;99580.22;5019124;28;21028;-85
2022/11/11 01:09:31;;;;;;;18.40;8.50;;;7.40;99.90;;;8.09;100.00;99576.91;5018468;28;20471;-84
2022/11/11 01:12:01;;;;;;;16.33;7.90;;;7.40;99.90;;;8.07;100.00;99578.81;5020617;28;20503;-85
2022/11/11 01:14:31;;;;;;;12.93;7.77;;;7.30;99.90;;;8.05;100.00;99580.75;5019280;28;21058;-85
2022/11/11 01:17:03;;;;;;;20.93;7.83;;;7.40;99.90;;;8.00;100.00;99586.34;5017759;28;20468;-84
2022/11/11 01:19:33;;;;;;;14.10;7.27;;;7.40;99.90;;;7.96;100.00;99576.31;5019375;28;20466;-85
2022/11/11 01:22:05;;;;;;;18.90;7.50;;;7.50;99.90;;;7.94;100.00;99591.25;5016862;28;21092;-85
2022/11/11 01:24:34;;;;;;;15.67;6.80;;;7.40;99.90;;;7.89;100.00;99589.03;5018623;28;20529;-84
2022/11/11 01:27:04;;;;;;;10.77;6.97;;;7.30;99.90;;;7.93;100.00;99589.59;5016502;28;20462;-84
2022/11/11 01:29:34;;;;;;;11.60;7.03;;;7.30;99.90;;;7.88;100.00;99584.00;5017484;28;20479;-85
2022/11/11 01:32:06;;;;;;;23.93;6.23;;;7.20;99.90;;;7.83;100.00;99586.16;5017051;28;20485;-84
2022/11/11 01:34:35;;;;;;;9.03;6.73;;;7.20;99.90;;;7.85;100.00;99595.47;5016952;28;20463;-85
2022/11/11 01:37:07;;;;;;;29.23;6.90;;;7.20;99.90;;;7.87;100.00;99592.75;5020277;28;20470;-84
2022/11/11 01:39:37;;;;;;;18.57;6.97;;;7.30;99.90;;;7.87;100.00;99592.75;5019292;28;20477;-85
2022/11/11 01:42:06;;;;;;;12.00;6.67;;;7.20;99.90;;;7.90;100.00;99587.28;5017509;28;20517;-85
2022/11/11 01:44:46;;;;;;;11.17;6.30;;;7.30;99.90;;;7.87;100.00;99588.38;5018846;28;21174;-85
2022/11/11 01:47:18;;;;;;;13.83;6.17;;;7.20;99.90;;;7.86;100.00;99591.09;5019073;28;20530;-85
2022/11/11 01:49:57;;;;;;;9.70;5.60;;;7.20;99.90;;;7.86;100.00;99598.91;5018915;28;20496;-85
2022/11/11 01:52:32;;;;;;;11.53;6.60;;;7.10;99.90;;;7.84;100.00;99587.81;5019548;28;20465;-85
2022/11/11 01:55:07;;;;;;;19.57;6.87;;;7.10;99.90;;;7.80;100.00;99592.44;5018902;28;20481;-85
2022/11/11 01:57:44;;;;;;;19.30;6.43;;;7.10;99.90;;;7.76;100.00;99583.25;5018200;28;20458;-86
2022/11/11 02:00:18;;;;;;;18.53;5.70;;;7.10;99.90;;;7.67;100.00;99575.41;5019551;28;20505;-84
2022/11/11 02:02:53;;;;;;;11.40;5.53;;;7.10;99.90;;;7.65;100.00;99577.28;5021476;28;20964;-85
2022/11/11 02:05:44;;;;;;;20.00;6.63;;;7.10;99.90;;;7.66;100.00;99578.97;5018985;28;20497;-85
2022/11/11 02:08:32;;;;;;;18.67;6.20;;;7.10;99.90;;;7.63;100.00;99581.81;5020505;28;20478;-85
2022/11/11 02:11:06;;;;;;;10.60;5.57;;;7.10;99.90;;;7.50;100.00;99582.84;5021715;28;20573;-85
2022/11/11 02:16:28;;;;;;;10.20;4.67;;;7.00;99.90;;;7.30;100.00;99568.09;5017905;28;20458;-85
2022/11/11 02:18:59;;;;;;;19.43;5.10;;;6.90;99.90;;;7.26;100.00;99571.91;5017881;28;20457;-85
2022/11/11 02:21:41;;;;;;;13.93;5.43;;;6.90;99.90;;;7.24;100.00;99579.03;5020959;28;20489;-85
2022/11/11 02:24:18;;;;;;;24.57;4.90;;;6.80;99.90;;;7.15;100.00;99579.75;5015099;28;20964;-85
2022/11/11 02:26:48;;;;;;;7.20;4.70;;;6.80;99.90;;;7.16;100.00;99583.19;5018022;28;20474;-85
2022/11/11 02:29:26;;;;;;;12.17;4.60;;;6.70;99.90;;;7.10;100.00;99587.13;5017519;28;20469;-84
2022/11/11 02:31:56;;;;;;;12.00;4.80;;;6.70;99.90;;;7.12;100.00;99587.81;5017816;28;20847;-84
2022/11/11 02:34:31;;;;;;;9.43;4.73;;;6.60;99.90;;;7.11;100.00;99594.00;5016712;28;20470;-85
2022/11/11 02:37:03;;;;;;;12.63;4.80;;;6.60;99.90;;;6.97;100.00;99586.50;5019243;28;20537;-85
2022/11/11 02:39:42;;;;;;;10.53;4.03;;;6.50;99.90;;;6.95;100.00;99584.03;5016527;28;20663;-85
2022/11/11 02:42:35;;;;;;;7.70;3.90;;;6.50;99.90;;;6.84;100.00;99584.06;5017915;28;20924;-84
2022/11/11 02:45:05;;;;;;;8.83;5.10;;;6.40;99.90;;;6.88;100.00;99589.84;5019984;28;20510;-84
2022/11/11 02:47:35;;;;;;;7.90;4.10;;;6.40;99.90;;;6.88;100.00;99605.44;5018745;28;20450;-84
2022/11/11 02:50:09;;;;;;;8.90;4.73;;;6.30;99.90;;;6.90;100.00;99601.78;5017489;28;21414;-84
2022/11/11 02:52:38;;;;;;;10.30;4.00;;;6.30;99.90;;;6.94;100.00;99602.38;5019746;28;20442;-83
2022/11/11 02:55:10;;;;;;;22.97;4.23;;;6.30;99.90;;;6.83;100.00;99608.44;5019515;28;20461;-84
2022/11/11 02:57:40;;;;;;;14.00;3.70;;;6.30;99.90;;;6.63;100.00;99609.19;5018039;28;20447;-85
2022/11/11 03:00:13;;;;;;;5.43;3.80;;;6.20;99.90;;;6.51;100.00;99603.22;5019531;28;20458;-84
2022/11/11 03:02:43;;;;;;;7.63;3.37;;;6.20;99.90;;;6.54;100.00;99604.75;5020287;28;20438;-85
2022/11/11 03:05:15;;;;;;;4.80;3.40;;;6.10;99.90;;;6.50;100.00;99613.72;5018698;28;20496;-84
2022/11/11 03:07:45;;;;;;;5.47;3.13;;;6.10;99.90;;;6.50;100.00;99617.16;5019249;28;20482;-84
2022/11/11 03:10:17;;;;;;;26.60;3.90;;;6.10;99.90;;;6.50;100.00;99611.13;5018123;28;20802;-84
2022/11/11 03:12:47;;;;;;;12.53;4.10;;;6.00;99.90;;;6.39;100.00;99616.34;5017888;28;20557;-86
2022/11/11 03:15:16;;;;;;;8.23;3.77;;;6.00;99.90;;;6.34;100.00;99613.31;5016911;28;20893;-85
2022/11/11 03:17:45;;;;;;;11.87;3.47;;;5.90;99.90;;;6.33;100.00;99615.09;5016386;28;20481;-85
2022/11/11 03:23:07;;;;;;;8.30;4.00;;;5.80;99.90;;;6.33;100.00;99617.69;5018656;28;20940;-86
2022/11/11 03:25:41;;;;;;;4.77;3.53;;;5.70;99.90;;;6.26;100.00;99626.06;5017739;28;20506;-85
2022/11/11 03:28:14;;;;;;;5.60;3.43;;;5.70;99.90;;;6.28;100.00;99625.00;5013136;28;20474;-84
2022/11/11 03:30:46;;;;;;;8.37;4.30;;;5.70;99.90;;;6.34;100.00;99628.91;5016440;28;20523;-84
2022/11/11 03:33:16;;;;;;;5.33;3.60;;;5.80;99.90;;;6.35;100.00;99641.75;5016125;28;20462;-84
2022/11/11 03:35:47;;;;;;;3.50;3.10;;;5.90;99.90;;;6.35;100.00;99636.56;5015322;28;20548;-85
2022/11/11 03:38:22;;;;;;;8.40;3.53;;;5.90;99.90;;;6.36;100.00;99632.19;5016636;28;20527;-84
2022/11/11 03:40:56;;;;;;;9.73;2.90;;;5.90;99.90;;;6.35;100.00;99638.34;5017176;28;21071;-84
2022/11/11 03:43:28;;;;;;;5.33;2.80;;;5.90;99.90;;;6.30;100.00;99637.88;5018983;28;20518;-85
2022/11/11 03:46:00;;;;;;;4.23;2.87;;;5.90;99.90;;;6.22;100.00;99635.88;5017618;28;20588;-85
2022/11/11 03:48:33;;;;;;;7.93;2.57;;;5.80;99.90;;;6.13;100.00;99634.00;5017919;28;20458;-83
2022/11/11 03:51:03;;;;;;;2.60;2.30;;;5.70;99.90;;;6.05;100.00;99634.59;5017682;28;20965;-84
2022/11/11 03:53:33;;;;;;;3.63;2.53;;;5.60;99.90;;;6.03;100.00;99633.06;5019470;28;20451;-84
2022/11/11 03:56:04;;;;;;;5.20;2.63;;;5.60;99.90;;;6.09;100.00;99640.38;5018020;28;20529;-84
2022/11/11 03:58:34;;;;;;;2.47;2.23;;;5.50;99.90;;;6.13;100.00;99646.16;5018064;28;20532;-83
2022/11/11 04:10:21;;;;;;;3.60;2.67;;;5.50;99.90;;;6.16;100.00;99646.75;5019698;28;20461;-84
2022/11/11 04:12:27;;;;;;;2.70;2.30;;;5.50;99.90;;;5.98;100.00;99643.81;5015019;28;20482;-77
2022/11/11 04:17:45;;;;;;;6.40;2.53;;;5.40;99.90;;;5.96;100.00;99644.88;5016052;28;21045;-84
2022/11/11 04:23:02;;;;;;;3.73;2.57;;;5.30;99.90;;;5.93;100.00;99650.31;5016074;28;20503;-84
2022/11/11 04:25:48;;;;;;;2.70;2.20;;;5.40;99.90;;;5.83;100.00;99644.94;5017340;28;20485;-85
2022/11/11 04:31:06;;;;;;;2.50;2.30;;;5.30;99.90;;;5.75;100.00;99642.13;5017374;28;20455;-85
2022/11/11 04:33:35;;;;;;;3.10;2.30;;;5.30;99.90;;;5.69;100.00;99642.59;5017585;28;20475;-85
2022/11/11 04:36:07;;;;;;;3.30;2.40;;;5.20;99.90;;;5.69;100.00;99646.97;5017040;28;20492;-87
2022/11/11 04:41:25;;;;;;;2.87;2.47;;;5.20;99.90;;;5.65;100.00;99651.56;5020019;28;21000;-85
2022/11/11 04:46:56;;;;;;;4.20;2.13;;;5.20;99.90;;;5.45;100.00;99657.41;5021659;28;20494;-86
2022/11/11 04:49:26;;;;;;;2.07;1.70;;;5.10;99.90;;;5.27;100.00;99659.63;5021071;28;20455;-86
2022/11/11 04:57:26;;;;;;;2.10;1.90;;;4.70;99.90;;;5.31;100.00;99668.00;5020776;28;20459;-88
2022/11/11 04:59:57;;;;;;;4.40;2.40;;;4.70;99.90;;;5.32;100.00;99664.44;5020781;28;20548;-85
2022/11/11 05:05:15;;;;;;;4.07;1.80;;;4.60;99.90;;;5.19;100.00;99655.94;5021099;28;20497;-86
2022/11/11 05:10:31;;;;;;;7.50;3.53;;;4.40;99.90;;;5.29;100.00;99660.31;5020378;28;20446;-85
2022/11/11 05:21:29;;;;;;;9.80;2.87;;;4.50;99.90;;;5.33;100.00;99669.53;5018951;28;20473;-85
2022/11/11 05:26:45;;;;;;;1.70;1.60;;;4.50;99.90;;;5.32;100.00;99673.06;5022687;28;20524;-86
2022/11/11 05:29:14;;;;;;;1.80;1.40;;;4.50;99.90;;;5.31;100.00;99674.00;5017250;28;20947;-86
2022/11/11 05:31:45;;;;;;;1.50;1.40;;;4.50;99.90;;;5.23;100.00;99676.34;5018482;28;21020;-86
2022/11/11 05:34:20;;;;;;;3.50;1.80;;;4.30;99.90;;;5.24;100.00;99682.34;5017553;28;20434;-87
2022/11/11 05:36:48;;;;;;;4.07;2.10;;;4.30;99.90;;;5.23;100.00;99685.88;5020844;28;20199;-85
2022/11/11 05:39:18;;;;;;;3.37;1.80;;;4.30;99.90;;;5.24;100.00;99683.16;5021709;28;20512;-86
2022/11/11 05:41:47;;;;;;;1.87;1.57;;;4.30;99.90;;;5.23;100.00;99686.72;5023084;28;20455;-86
2022/11/11 05:44:17;;;;;;;1.57;1.47;;;4.30;99.90;;;5.13;100.00;99682.31;5020450;28;20507;-86
2022/11/11 05:46:49;;;;;;;2.20;1.63;;;4.20;99.90;;;5.05;100.00;99683.69;5021320;28;20523;-86
2022/11/11 05:49:17;;;;;;;2.70;1.30;;;4.10;99.90;;;5.04;100.00;99687.22;5021868;28;20545;-85
2022/11/11 05:51:47;;;;;;;3.13;1.90;;;4.10;99.90;;;5.06;100.00;99689.72;5019221;28;20532;-86
2022/11/11 05:54:16;;;;;;;1.80;1.67;;;4.20;99.90;;;5.08;100.00;99687.81;5022656;28;20445;-86
2022/11/11 05:56:47;;;;;;;2.63;1.80;;;4.20;99.90;;;5.11;100.00;99687.59;5021197;28;20445;-86
2022/11/11 05:59:16;;;;;;;2.47;1.47;;;4.20;99.90;;;5.02;100.00;99685.69;5020777;28;20448;-86
2022/11/11 06:01:45;;;;;;;5.23;1.37;;;4.00;99.90;;;5.01;100.00;99681.44;5020542;28;20542;-86
2022/11/11 06:04:17;;;;;;;1.57;1.47;;;4.00;99.90;;;5.03;100.00;99700.31;5020830;28;20548;-86
2022/11/11 06:06:47;;;;;;;2.73;1.53;;;4.10;99.90;;;5.00;100.00;99693.56;5023768;28;20824;-84
2022/11/11 06:09:17;;;;;;;1.97;1.87;;;4.10;99.90;;;4.97;100.00;99701.56;5022844;28;20454;-85
2022/11/11 06:11:46;;;;;;;2.23;1.93;;;4.20;99.90;;;4.95;100.00;99700.84;5018942;28;20890;-86
2022/11/11 06:14:16;;;;;;;1.50;1.40;;;4.20;99.90;;;4.97;100.00;99698.97;5019643;28;21841;-85
2022/11/11 06:16:45;;;;;;;1.90;1.70;;;4.30;99.90;;;4.96;100.00;99704.28;5020793;28;20443;-84
2022/11/11 06:19:15;;;;;;;2.30;1.97;;;4.10;99.90;;;4.87;100.00;99700.56;5020316;28;20463;-86
2022/11/11 06:24:32;;;;;;;4.33;2.00;;;4.10;99.90;;;4.87;100.00;99699.75;5019024;28;20461;-86
2022/11/11 06:27:02;;;;;;;3.13;1.97;;;4.10;99.90;;;4.83;100.00;99693.94;5018646;28;20914;-86
2022/11/11 06:29:31;;;;;;;5.70;2.10;;;4.00;99.90;;;4.84;100.00;99692.19;5020727;28;20699;-85
2022/11/11 06:32:01;;;;;;;2.67;1.90;;;4.00;99.90;;;4.80;100.00;99695.94;5019871;28;20457;-86
2022/11/11 06:34:32;;;;;;;3.37;1.70;;;3.90;99.90;;;4.76;100.00;99707.44;5020816;28;20492;-86
2022/11/11 06:37:02;;;;;;;1.80;1.70;;;3.80;99.90;;;4.76;100.00;99704.84;5019611;28;20460;-86
2022/11/11 06:39:32;;;;;;;3.37;1.53;;;3.90;99.90;;;4.75;100.00;99711.00;5020112;28;20949;-86
2022/11/11 06:42:01;;;;;;;7.53;2.43;;;3.80;99.90;;;4.75;100.00;99717.00;5019547;28;20455;-87
2022/11/11 06:44:32;;;;;;;3.50;2.00;;;3.80;99.90;;;4.74;100.00;99714.50;5020430;28;20445;-86
2022/11/11 06:47:02;;;;;;;2.33;1.90;;;3.70;99.90;;;4.74;100.00;99719.69;5018539;28;20493;-86
2022/11/11 06:49:32;;;;;;;6.13;2.30;;;3.80;99.90;;;4.73;100.00;99728.41;5020072;28;20539;-86
2022/11/11 06:52:02;;;;;;;4.50;1.90;;;3.80;99.90;;;4.73;100.00;99728.41;5017839;28;20959;-86
2022/11/11 06:54:31;;;;;;;3.47;2.07;;;3.80;99.90;;;4.70;100.00;99738.97;5018057;28;20562;-87
2022/11/11 06:57:01;;;;;;;4.93;1.67;;;3.80;99.90;;;4.66;100.00;99732.34;5018133;28;20460;-87
2022/11/11 06:59:36;;;;;;;2.57;1.77;;;3.70;99.90;;;4.62;100.00;99739.50;5019212;28;20456;-87
2022/11/11 07:02:07;;;;;;;4.30;1.80;;;3.60;99.90;;;4.63;100.00;99737.75;5019350;28;20514;-86
2022/11/11 07:04:38;;;;;;;6.97;1.50;;;3.70;99.90;;;4.64;100.00;99742.00;5019105;28;20546;-86
2022/11/11 07:07:08;;;;;;;1.80;1.70;;;3.70;99.90;;;4.54;100.00;99742.66;5021324;28;20583;-86
2022/11/11 07:09:38;;;;;;;5.30;2.13;;;3.60;99.90;;;4.53;100.00;99747.94;5019028;28;21038;-86
2022/11/11 07:12:08;;;;;;;2.30;2.00;;;3.60;99.90;;;4.49;100.00;99749.09;5019720;28;20986;-85
2022/11/11 07:14:38;;;;;;;3.37;1.70;;;3.50;99.90;;;4.46;100.00;99747.53;5019465;28;20975;-86
2022/11/11 07:17:07;;;;;;;6.70;2.00;;;3.50;99.90;;;4.51;100.00;99755.81;5018592;28;20443;-85
2022/11/11 07:19:38;;;;;;;4.33;2.30;;;3.50;99.90;;;4.51;100.00;99750.63;5018210;28;20458;-87
2022/11/11 07:22:08;;;;;;;3.83;2.23;;;3.60;99.90;;;4.53;100.00;99753.94;5018036;28;20950;-86
2022/11/11 07:24:38;;;;;;;2.10;1.90;;;3.70;99.90;;;4.54;100.00;99760.81;5019414;28;20540;-87
2022/11/11 07:27:09;;;;;;;3.80;2.47;;;3.70;99.90;;;4.54;100.00;99773.75;5018370;28;21010;-85
2022/11/11 07:29:39;;;;;;;2.30;2.10;;;3.60;99.90;;;4.56;100.00;99765.84;5018989;28;20946;-86
2022/11/11 07:32:08;;;;;;;3.17;2.50;;;3.60;99.90;;;4.54;100.00;99758.22;5019079;28;20448;-86
2022/11/11 07:34:40;;;;;;;3.00;1.87;;;3.60;99.90;;;4.56;100.00;99760.69;5021642;28;20494;-86
2022/11/11 07:37:10;;;;;;;3.50;2.57;;;3.60;99.90;;;4.52;100.00;99761.81;5019576;28;20531;-86
2022/11/11 07:39:39;;;;;;;2.37;1.83;;;3.60;99.90;;;4.55;100.00;99759.00;5019572;28;20480;-85
2022/11/11 07:42:09;;;;;;;4.93;2.03;;;3.60;99.90;;;4.56;100.00;99753.72;5019603;28;20475;-86
2022/11/11 07:44:58;;;;;;;3.50;1.80;;;3.60;99.90;;;4.57;100.00;99760.59;5019908;28;20973;-86
2022/11/11 07:47:29;;;;;;;1.97;1.70;;;3.70;99.90;;;4.62;100.00;99759.44;5017126;28;20490;-87
2022/11/11 07:49:59;;;;;;;2.37;1.90;;;3.80;99.90;;;4.58;100.00;99759.63;5019014;28;20445;-86
2022/11/11 07:52:36;;;;;;;13.37;2.20;;;3.70;99.90;;;4.64;100.00;99760.16;5020944;28;20490;-86
2022/11/11 07:55:07;;;;;;;5.60;2.00;;;3.80;99.90;;;4.67;100.00;99758.16;5019290;28;20693;-86
2022/11/11 07:57:36;;;;;;;4.20;2.63;;;3.80;99.90;;;4.72;100.00;99765.63;5019746;28;20457;-86
2022/11/11 08:00:09;;;;;;;4.13;2.60;;;3.80;99.90;;;4.74;100.00;99761.16;5020592;28;20465;-86
2022/11/11 08:02:38;;;;;;;6.77;2.20;;;3.90;99.90;;;4.78;100.00;99762.59;5023310;28;20496;-87
2022/11/11 08:05:11;;;;;;;2.10;1.90;;;4.00;99.90;;;4.85;100.00;99761.22;5020399;28;20483;-85
2022/11/11 08:07:41;;;;;;;2.90;2.00;;;4.00;99.90;;;4.87;100.00;99757.59;5018734;28;20570;-86
2022/11/11 08:10:13;;;;;;;11.20;1.83;;;4.00;99.90;;;4.92;100.00;99759.84;5018740;28;20944;-86
2022/11/11 08:15:29;;;;;;;4.40;2.03;;;4.20;99.90;;;5.00;100.00;99767.91;5020408;28;20505;-86
2022/11/11 08:18:00;;;;;;;4.70;2.30;;;4.30;99.90;;;5.03;100.00;99770.28;5024525;28;20461;-87
2022/11/11 08:20:30;;;;;;;5.83;2.20;;;4.30;99.90;;;5.10;100.00;99768.09;5020556;28;20459;-86
2022/11/11 08:22:59;;;;;;;4.80;2.57;;;4.30;99.90;;;5.15;100.00;99776.34;5022676;28;20443;-85
2022/11/11 08:25:48;;;;;;;2.63;1.87;;;4.40;99.90;;;5.19;100.00;99776.03;5022969;28;20777;-86
2022/11/11 08:28:18;;;;;;;3.57;2.30;;;4.50;99.90;;;5.24;100.00;99781.69;5020501;28;20493;-85
2022/11/11 08:30:48;;;;;;;4.60;2.57;;;4.50;99.90;;;5.28;100.00;99777.13;5021508;28;21029;-86
2022/11/11 08:33:18;;;;;;;3.63;2.73;;;4.50;99.90;;;5.29;100.00;99769.25;5022907;28;20440;-86
2022/11/11 08:36:04;;;;;;;5.30;2.60;;;4.50;99.90;;;5.34;100.00;99766.31;5020187;28;20503;-86
2022/11/11 08:38:34;;;;;;;7.37;2.40;;;4.60;99.90;;;5.36;100.00;99770.44;5022309;28;20505;-86
2022/11/11 08:41:05;;;;;;;5.50;2.33;;;4.60;99.90;;;5.43;100.00;99769.06;5022031;28;20538;-86
2022/11/11 08:43:34;;;;;;;6.47;1.97;;;4.70;99.90;;;5.47;100.00;99772.25;5021119;28;20441;-85
2022/11/11 08:46:06;;;;;;;3.63;1.70;;;4.70;99.90;;;5.49;100.00;99755.63;5022363;28;20465;-86
2022/11/11 08:48:37;;;;;;;7.67;2.50;;;4.70;99.90;;;5.55;100.00;99762.16;5022963;28;20494;-87
2022/11/11 08:51:08;;;;;;;5.63;2.30;;;4.80;99.90;;;5.58;100.00;99775.75;5023139;28;20961;-86
2022/11/11 08:53:38;;;;;;;9.90;2.27;;;4.80;99.90;;;5.66;100.00;99771.75;5022987;28;20829;-86
2022/11/11 08:56:08;;;;;;;6.80;2.40;;;4.90;99.90;;;5.70;100.00;99775.75;5020785;28;20451;-86
2022/11/11 08:58:38;;;;;;;18.50;3.40;;;5.00;99.90;;;5.78;100.00;99765.63;5023552;28;20485;-86
2022/11/11 09:01:12;;;;;;;19.70;4.07;;;5.10;99.90;;;5.84;100.00;99770.38;5022484;28;20970;-86
2022/11/11 09:03:44;;;;;;;19.40;3.90;;;5.20;99.90;;;5.88;100.00;99774.41;5022136;28;20435;-87
2022/11/11 09:06:16;;;;;;;22.13;4.87;;;5.30;99.90;;;5.92;100.00;99775.84;5021566;28;20443;-86
2022/11/11 09:08:45;;;;;;;19.03;3.30;;;5.30;99.90;;;5.96;100.00;99769.50;5022133;28;20486;-85
2022/11/11 09:11:16;;;;;;;22.53;4.00;;;5.40;99.90;;;5.98;100.00;99773.63;5021551;28;20523;-86
2022/11/11 09:13:47;;;;;;;9.97;3.20;;;5.30;99.90;;;6.03;100.00;99773.28;5021294;28;20454;-86
2022/11/11 09:16:17;;;;;;;9.07;4.20;;;5.30;99.90;;;6.08;100.00;99784.97;5020978;28;20455;-86
2022/11/11 09:18:47;;;;;;;11.03;3.67;;;5.40;99.90;;;6.14;100.00;99782.88;5019150;28;21105;-85
2022/11/11 09:21:18;;;;;;;20.37;4.13;;;5.50;99.90;;;6.18;100.00;99785.09;5021976;28;20506;-86
2022/11/11 09:23:48;;;;;;;18.73;4.80;;;5.50;99.90;;;6.18;100.00;99782.50;5020172;28;20451;-86
2022/11/11 09:26:17;;;;;;;19.50;5.47;;;5.50;99.90;;;6.25;100.00;99783.69;5020661;28;20900;-86
2022/11/11 09:28:48;;;;;;;39.17;6.13;;;5.50;99.90;;;6.28;100.00;99782.66;5021449;28;21018;-86
2022/11/11 09:31:18;;;;;;;20.37;5.33;;;5.60;99.90;;;6.35;100.00;99778.63;5020501;28;20534;-85
2022/11/11 09:34:07;;;;;;;19.97;5.33;;;5.60;99.90;;;6.41;100.00;99779.00;5021368;28;20438;-85
2022/11/11 09:36:38;;;;;;;14.70;5.13;;;5.80;99.90;;;6.47;100.00;99783.72;5020583;28;20957;-85
2022/11/11 09:39:07;;;;;;;29.67;6.03;;;5.80;99.90;;;6.52;100.00;99788.56;5021679;28;20533;-86
2022/11/11 09:41:59;;;;;;;16.73;4.70;;;5.90;99.90;;;6.57;100.00;99792.44;5022031;28;20463;-86
2022/11/11 09:45:11;;;;;;;25.43;5.27;;;5.90;99.90;;;6.65;100.00;99785.81;5022198;28;20467;-86
2022/11/11 09:47:51;;;;;;;21.67;5.50;;;6.00;99.90;;;6.71;100.00;99783.56;5020743;28;20502;-86
2022/11/11 09:50:34;;;;;;;30.77;8.27;;;6.10;99.90;;;6.79;100.00;99788.19;5024512;28;20442;-87
2022/11/11 09:53:20;;;;;;;27.23;5.13;;;6.30;99.90;;;6.85;100.00;99790.28;5019470;28;20953;-86
2022/11/11 09:55:56;;;;;;;21.13;5.20;;;6.40;99.90;;;6.92;100.00;99791.47;5019705;28;20445;-87
2022/11/11 09:58:35;;;;;;;18.90;5.13;;;6.40;99.90;;;6.99;100.00;99779.63;5021263;28;20498;-86
2022/11/11 10:01:12;;;;;;;12.87;4.23;;;6.50;99.90;;;7.04;100.00;99773.13;5021025;28;20465;-84
2022/11/11 10:03:47;;;;;;;19.07;4.67;;;6.40;99.90;;;7.12;100.00;99771.66;5022388;28;20466;-86
2022/11/11 10:06:23;;;;;;;20.00;5.37;;;6.50;99.90;;;7.21;100.00;99774.38;5019506;28;20462;-86
2022/11/11 10:09:01;;;;;;;27.17;6.37;;;6.70;99.90;;;7.29;100.00;99771.97;5021950;28;21005;-87
2022/11/11 10:11:48;;;;;;;17.40;5.80;;;6.80;99.90;;;7.38;100.00;99770.41;5019450;28;20498;-86
2022/11/11 10:14:20;;;;;;;11.40;5.00;;;6.90;99.90;;;7.45;100.00;99766.38;5019884;28;20462;-86
2022/11/11 10:17:03;;;;;;;20.63;7.00;;;7.00;99.90;;;7.53;100.00;99762.19;5020809;28;20471;-87
2022/11/11 10:19:45;;;;;;;19.20;5.00;;;7.10;99.90;;;7.62;100.00;99759.78;5020691;28;20991;-87
2022/11/11 10:22:22;;;;;;;20.87;5.27;;;7.20;99.90;;;7.70;100.00;99754.78;5019700;28;20474;-86
2022/11/11 10:25:07;;;;;;;15.80;5.43;;;7.30;99.90;;;7.79;100.00;99761.81;5021703;28;20466;-87
2022/11/11 10:27:36;;;;;;;12.90;5.77;;;7.40;99.90;;;7.85;100.00;99750.88;5019342;28;20891;-86
2022/11/11 10:30:22;;;;;;;18.93;5.70;;;7.50;99.90;;;7.92;100.00;99749.44;5018713;28;20549;-85
2022/11/11 10:33:03;;;;;;;22.57;5.57;;;7.60;99.90;;;7.99;100.00;99753.16;5018586;28;20469;-86
2022/11/11 10:35:33;;;;;;;16.40;5.47;;;7.70;99.90;;;8.05;100.00;99748.28;5018930;28;20471;-86
2022/11/11 10:38:23;;;;;;;14.53;5.70;;;7.70;99.90;;;8.12;100.00;99751.22;5020531;28;20462;-86
2022/11/11 10:40:58;;;;;;;16.60;4.93;;;7.70;99.90;;;8.18;100.00;99745.47;5020989;28;20966;-87
2022/11/11 10:43:29;;;;;;;10.60;5.30;;;7.80;99.90;;;8.23;100.00;99735.47;5018000;28;20493;-88
2022/11/11 10:46:08;;;;;;;12.33;6.27;;;7.90;99.90;;;8.30;100.00;99731.41;5020741;28;20556;-87
2022/11/11 10:48:54;;;;;;;12.80;6.87;;;7.90;99.90;;;8.35;100.00;99731.88;5020519;28;20552;-88
2022/11/11 10:51:29;;;;;;;20.83;7.43;;;8.00;99.90;;;8.41;100.00;99728.72;5020983;28;20950;-88
2022/11/11 10:54:09;;;;;;;14.43;5.50;;;8.00;99.90;;;8.47;100.00;99727.38;5022947;28;20470;-88
2022/11/11 10:56:48;;;;;;;13.53;5.47;;;8.10;99.90;;;8.51;100.00;99724.38;5022445;28;20463;-88
2022/11/11 10:59:26;;;;;;;9.77;5.50;;;8.10;99.90;;;8.57;100.00;99723.03;5023958;28;20823;-87
2022/11/11 11:02:04;;;;;;;13.03;5.70;;;8.10;99.90;;;8.63;100.00;99724.28;5022246;28;20473;-87
2022/11/11 11:04:44;;;;;;;10.30;5.40;;;8.20;99.90;;;8.67;100.00;99717.84;5020256;28;20502;-87
2022/11/11 11:07:21;;;;;;;17.47;7.27;;;8.20;99.90;;;8.72;100.00;99718.25;5019967;28;20466;-87
2022/11/11 11:09:58;;;;;;;16.10;6.07;;;8.30;99.90;;;8.77;100.00;99718.69;5021440;28;20497;-88
2022/11/11 11:12:38;;;;;;;9.70;5.20;;;8.40;99.90;;;8.81;100.00;99714.84;5022313;28;20553;-87
2022/11/11 11:15:14;;;;;;;10.50;6.00;;;8.40;99.90;;;8.87;100.00;99716.91;5020517;28;20462;-87
2022/11/11 11:17:54;;;;;;;10.97;5.20;;;8.40;99.90;;;8.90;100.00;99703.59;5021235;28;20471;-87
2022/11/11 11:20:24;;;;;;;9.20;4.87;;;8.50;99.90;;;8.95;100.00;99709.25;5020647;28;20541;-87
2022/11/11 11:22:58;;;;;;;12.93;5.60;;;8.50;99.90;;;8.98;100.00;99704.59;5020446;28;20888;-87
2022/11/11 11:25:29;;;;;;;12.93;5.13;;;8.60;99.90;;;9.03;100.00;99704.16;5022633;28;20889;-88
2022/11/11 11:28:15;;;;;;;10.53;5.20;;;8.60;99.90;;;9.07;100.00;99695.09;5017891;28;21050;-88
2022/11/11 11:31:01;;;;;;;8.77;5.10;;;8.60;99.90;;;9.12;100.00;99702.53;5018534;28;20576;-88
2022/11/11 11:33:53;;;;;;;14.30;5.47;;;8.70;99.90;;;9.17;100.00;99697.69;5019877;28;20578;-88
2022/11/11 11:36:23;;;;;;;8.90;4.90;;;8.70;99.90;;;9.20;100.00;99698.25;5019778;28;20466;-88
2022/11/11 11:38:53;;;;;;;8.70;4.83;;;8.80;99.90;;;9.23;100.00;99695.41;5017208;28;20469;-87
2022/11/11 11:41:40;;;;;;;10.70;4.60;;;8.80;99.90;;;9.28;100.00;99698.41;5018422;28;20470;-88
2022/11/11 11:44:29;;;;;;;9.80;4.53;;;8.80;99.90;;;9.33;100.00;99701.44;5020722;28;20462;-88
2022/11/11 11:47:22;;;;;;;9.33;4.00;;;8.90;99.90;;;9.37;100.00;99687.13;5016947;28;20544;-88
2022/11/11 11:50:39;;;;;;;9.77;4.83;;;8.90;99.90;;;9.45;100.00;99695.09;5023260;28;20860;-88
2022/11/11 11:53:39;;;;;;;7.37;4.37;;;9.00;99.90;;;9.50;100.00;99685.06;5016993;28;21218;-88
2022/11/11 11:56:21;;;;;;;8.90;3.83;;;9.00;99.90;;;9.56;100.00;99681.88;5024227;28;20953;-88
2022/11/11 11:59:01;;;;;;;5.23;3.90;;;9.10;99.90;;;9.61;100.00;99687.50;5027746;28;20524;-88
2022/11/11 12:01:50;;;;;;;10.43;3.90;;;9.10;99.90;;;9.66;100.00;99684.47;5025437;28;20545;-88
2022/11/11 12:04:42;;;;;;;10.33;4.07;;;9.20;99.90;;;9.72;100.00;99685.72;5027148;28;20994;-88